Chase, Canada
Current Conditions -  °F | °C
As of 9:00 PM on Wednesday 22 Oct 2014 (Local Time) from CYKA Reporting Station
Light Rain Light Rain  
Wind Chill: 10°   Ceiling: 5800
Heat Index: 10°   Visibility: 30mi
Dew Point:   Wind: 12mph
Humidity: 87%   Direction: 90°E
Pressure: 29.54"   Gusts: NA
Location:  50.82°N, 119.68°W
Report Text: CYKA 230400Z 09010KT 30SM -RA BKN058 OVC075 10/08 A2954 RMK SC6AC2 SLP007 DENSITY ALT 1200FT
Loading
Personal Weather Stations






























Interactive Weather Map
Tropical Storm Tracking
New forecast layout! Learn more

10-Day Weather Forecast

Advertisements
Track Severe Weather on mobile